sensor_id;sensor_type;location;lat;lon;timestamp;P1;durP1;ratioP1;P2;durP2;ratioP2
7823;SDS011;3957;48.61947800;9.05303100;2023-11-19T00:00:04;1.90;;;1.80;;
7823;SDS011;3957;48.61947800;9.05303100;2023-11-19T00:01:12;3.53;;;1.70;;
7823;SDS011;3957;48.61947800;9.05303100;2023-11-19T00:02:13;2.10;;;1.77;;
7823;SDS011;3957;48.61947800;9.05303100;2023-11-19T00:03:15;2.03;;;1.77;;
7823;SDS011;3957;48.61947800;9.05303100;2023-11-19T00:04:17;1.92;;;1.70;;
7823;SDS011;3957;48.61947800;9.05303100;2023-11-19T00:05:18;4.03;;;1.97;;
7823;SDS011;3957;48.61947800;9.05303100;2023-11-19T00:06:20;1.83;;;1.70;;
7823;SDS011;3957;48.61947800;9.05303100;2023-11-19T00:07:21;2.47;;;1.98;;
7823;SDS011;3957;48.61947800;9.05303100;2023-11-19T00:08:28;1.95;;;1.80;;
7823;SDS011;3957;48.61947800;9.05303100;2023-11-19T00:09:29;3.83;;;1.85;;
7823;SDS011;3957;48.61947800;9.05303100;2023-11-19T00:10:31;1.92;;;1.50;;
7823;SDS011;3957;48.61947800;9.05303100;2023-11-19T00:11:33;1.85;;;1.75;;
7823;SDS011;3957;48.61947800;9.05303100;2023-11-19T00:12:34;2.17;;;1.60;;
7823;SDS011;3957;48.61947800;9.05303100;2023-11-19T00:13:36;2.92;;;1.77;;
7823;SDS011;3957;48.61947800;9.05303100;2023-11-19T00:14:38;1.75;;;1.65;;
7823;SDS011;3957;48.61947800;9.05303100;2023-11-19T00:15:40;2.00;;;1.80;;
7823;SDS011;3957;48.61947800;9.05303100;2023-11-19T00:16:41;1.70;;;1.60;;
7823;SDS011;3957;48.61947800;9.05303100;2023-11-19T00:17:44;3.88;;;1.70;;
7823;SDS011;3957;48.61947800;9.05303100;2023-11-19T00:18:47;1.95;;;1.75;;
7823;SDS011;3957;48.61947800;9.05303100;2023-11-19T00:19:48;1.60;;;1.50;;
7823;SDS011;3957;48.61947800;9.05303100;2023-11-19T00:20:52;2.03;;;1.80;;
7823;SDS011;3957;48.61947800;9.05303100;2023-11-19T00:21:53;1.90;;;1.77;;
7823;SDS011;3957;48.61947800;9.05303100;2023-11-19T00:22:55;1.70;;;1.60;;
7823;SDS011;3957;48.61947800;9.05303100;2023-11-19T00:23:56;2.00;;;1.80;;
7823;SDS011;3957;48.61947800;9.05303100;2023-11-19T00:24:59;1.60;;;1.50;;
7823;SDS011;3957;48.61947800;9.05303100;2023-11-19T00:26:01;2.28;;;1.80;;
7823;SDS011;3957;48.61947800;9.05303100;2023-11-19T00:27:03;1.90;;;1.70;;
7823;SDS011;3957;48.61947800;9.05303100;2023-11-19T00:28:05;2.72;;;1.85;;
7823;SDS011;3957;48.61947800;9.05303100;2023-11-19T00:29:06;1.60;;;1.50;;
7823;SDS011;3957;48.61947800;9.05303100;2023-11-19T00:30:08;1.60;;;1.50;;
7823;SDS011;3957;48.61947800;9.05303100;2023-11-19T00:31:09;2.05;;;1.52;;
7823;SDS011;3957;48.61947800;9.05303100;2023-11-19T00:32:11;1.63;;;1.52;;
7823;SDS011;3957;48.61947800;9.05303100;2023-11-19T00:33:13;1.95;;;1.67;;
7823;SDS011;3957;48.61947800;9.05303100;2023-11-19T00:34:15;2.10;;;1.77;;
7823;SDS011;3957;48.61947800;9.05303100;2023-11-19T00:35:16;3.08;;;1.48;;
7823;SDS011;3957;48.61947800;9.05303100;2023-11-19T00:36:18;1.85;;;1.52;;
7823;SDS011;3957;48.61947800;9.05303100;2023-11-19T00:37:19;1.73;;;1.40;;
7823;SDS011;3957;48.61947800;9.05303100;2023-11-19T00:38:21;1.90;;;1.63;;
7823;SDS011;3957;48.61947800;9.05303100;2023-11-19T00:39:22;2.35;;;1.52;;
7823;SDS011;3957;48.61947800;9.05303100;2023-11-19T00:40:24;1.73;;;1.50;;
7823;SDS011;3957;48.61947800;9.05303100;2023-11-19T00:41:26;2.53;;;1.42;;
7823;SDS011;3957;48.61947800;9.05303100;2023-11-19T00:42:27;1.55;;;1.20;;
7823;SDS011;3957;48.61947800;9.05303100;2023-11-19T00:43:29;1.60;;;1.50;;
7823;SDS011;3957;48.61947800;9.05303100;2023-11-19T00:44:31;1.65;;;1.40;;
7823;SDS011;3957;48.61947800;9.05303100;2023-11-19T00:45:32;1.90;;;1.40;;
7823;SDS011;3957;48.61947800;9.05303100;2023-11-19T00:46:34;2.85;;;1.38;;
7823;SDS011;3957;48.61947800;9.05303100;2023-11-19T00:47:36;1.27;;;1.17;;
7823;SDS011;3957;48.61947800;9.05303100;2023-11-19T00:48:37;2.28;;;1.50;;
7823;SDS011;3957;48.61947800;9.05303100;2023-11-19T00:49:39;1.83;;;1.30;;
7823;SDS011;3957;48.61947800;9.05303100;2023-11-19T00:50:41;2.67;;;1.73;;
7823;SDS011;3957;48.61947800;9.05303100;2023-11-19T00:51:45;1.42;;;1.33;;
7823;SDS011;3957;48.61947800;9.05303100;2023-11-19T00:52:47;3.38;;;1.30;;
7823;SDS011;3957;48.61947800;9.05303100;2023-11-19T00:53:49;1.40;;;1.30;;
7823;SDS011;3957;48.61947800;9.05303100;2023-11-19T00:54:50;2.30;;;1.40;;
7823;SDS011;3957;48.61947800;9.05303100;2023-11-19T00:55:52;1.75;;;1.50;;
7823;SDS011;3957;48.61947800;9.05303100;2023-11-19T00:56:53;1.75;;;1.65;;
7823;SDS011;3957;48.61947800;9.05303100;2023-11-19T00:57:55;1.55;;;1.40;;
7823;SDS011;3957;48.61947800;9.05303100;2023-11-19T00:58:57;1.60;;;1.50;;
7823;SDS011;3957;48.61947800;9.05303100;2023-11-19T01:00:01;2.60;;;1.42;;
7823;SDS011;3957;48.61947800;9.05303100;2023-11-19T01:01:08;1.40;;;1.30;;
7823;SDS011;3957;48.61947800;9.05303100;2023-11-19T01:02:09;1.80;;;1.40;;
7823;SDS011;3957;48.61947800;9.05303100;2023-11-19T01:03:11;1.40;;;1.30;;
7823;SDS011;3957;48.61947800;9.05303100;2023-11-19T01:04:13;1.75;;;1.55;;
7823;SDS011;3957;48.61947800;9.05303100;2023-11-19T01:05:15;1.25;;;1.15;;
7823;SDS011;3957;48.61947800;9.05303100;2023-11-19T01:06:26;1.80;;;1.10;;
7823;SDS011;3957;48.61947800;9.05303100;2023-11-19T01:07:28;1.50;;;1.27;;
7823;SDS011;3957;48.61947800;9.05303100;2023-11-19T01:08:30;1.70;;;1.42;;
7823;SDS011;3957;48.61947800;9.05303100;2023-11-19T01:09:32;2.35;;;1.55;;
7823;SDS011;3957;48.61947800;9.05303100;2023-11-19T01:10:38;1.40;;;1.30;;
7823;SDS011;3957;48.61947800;9.05303100;2023-11-19T01:11:40;1.50;;;1.10;;
7823;SDS011;3957;48.61947800;9.05303100;2023-11-19T01:12:42;1.45;;;1.30;;
7823;SDS011;3957;48.61947800;9.05303100;2023-11-19T01:13:44;2.20;;;1.30;;
7823;SDS011;3957;48.61947800;9.05303100;2023-11-19T01:14:46;1.35;;;1.25;;
7823;SDS011;3957;48.61947800;9.05303100;2023-11-19T01:15:47;1.35;;;1.25;;
7823;SDS011;3957;48.61947800;9.05303100;2023-11-19T01:16:49;1.25;;;1.10;;
7823;SDS011;3957;48.61947800;9.05303100;2023-11-19T01:17:51;2.08;;;1.30;;
7823;SDS011;3957;48.61947800;9.05303100;2023-11-19T01:18:54;1.35;;;1.15;;
7823;SDS011;3957;48.61947800;9.05303100;2023-11-19T01:20:12;2.35;;;1.60;;
7823;SDS011;3957;48.61947800;9.05303100;2023-11-19T01:21:14;2.90;;;2.38;;
7823;SDS011;3957;48.61947800;9.05303100;2023-11-19T01:22:16;1.35;;;1.20;;
7823;SDS011;3957;48.61947800;9.05303100;2023-11-19T01:23:18;2.20;;;1.30;;
7823;SDS011;3957;48.61947800;9.05303100;2023-11-19T01:24:20;1.27;;;1.08;;
7823;SDS011;3957;48.61947800;9.05303100;2023-11-19T01:25:21;3.53;;;1.20;;
7823;SDS011;3957;48.61947800;9.05303100;2023-11-19T01:26:23;2.25;;;1.20;;
7823;SDS011;3957;48.61947800;9.05303100;2023-11-19T01:27:24;1.30;;;1.20;;
7823;SDS011;3957;48.61947800;9.05303100;2023-11-19T01:28:26;1.27;;;1.17;;
7823;SDS011;3957;48.61947800;9.05303100;2023-11-19T01:29:27;1.95;;;1.45;;
7823;SDS011;3957;48.61947800;9.05303100;2023-11-19T01:30:29;1.40;;;1.30;;
7823;SDS011;3957;48.61947800;9.05303100;2023-11-19T01:31:30;1.10;;;1.10;;
7823;SDS011;3957;48.61947800;9.05303100;2023-11-19T01:32:35;1.08;;;1.00;;
7823;SDS011;3957;48.61947800;9.05303100;2023-11-19T01:33:38;1.40;;;1.30;;
7823;SDS011;3957;48.61947800;9.05303100;2023-11-19T01:34:40;1.60;;;1.30;;
7823;SDS011;3957;48.61947800;9.05303100;2023-11-19T01:35:42;1.90;;;1.40;;
7823;SDS011;3957;48.61947800;9.05303100;2023-11-19T01:36:43;1.30;;;1.20;;
7823;SDS011;3957;48.61947800;9.05303100;2023-11-19T01:37:47;1.27;;;1.17;;
7823;SDS011;3957;48.61947800;9.05303100;2023-11-19T01:38:49;1.30;;;1.20;;
7823;SDS011;3957;48.61947800;9.05303100;2023-11-19T01:39:51;1.25;;;1.15;;
7823;SDS011;3957;48.61947800;9.05303100;2023-11-19T01:40:56;0.95;;;0.93;;
7823;SDS011;3957;48.61947800;9.05303100;2023-11-19T01:41:59;1.00;;;1.00;;
7823;SDS011;3957;48.61947800;9.05303100;2023-11-19T01:43:00;1.10;;;1.00;;
7823;SDS011;3957;48.61947800;9.05303100;2023-11-19T01:44:02;1.33;;;1.20;;
7823;SDS011;3957;48.61947800;9.05303100;2023-11-19T01:45:04;1.10;;;1.00;;
7823;SDS011;3957;48.61947800;9.05303100;2023-11-19T01:46:08;0.85;;;0.80;;
7823;SDS011;3957;48.61947800;9.05303100;2023-11-19T01:47:13;1.13;;;1.02;;
7823;SDS011;3957;48.61947800;9.05303100;2023-11-19T01:48:16;1.80;;;1.00;;
7823;SDS011;3957;48.61947800;9.05303100;2023-11-19T01:49:18;1.00;;;1.00;;
7823;SDS011;3957;48.61947800;9.05303100;2023-11-19T01:50:21;0.90;;;0.90;;
7823;SDS011;3957;48.61947800;9.05303100;2023-11-19T01:51:23;0.98;;;0.90;;
7823;SDS011;3957;48.61947800;9.05303100;2023-11-19T01:52:25;1.13;;;1.02;;
7823;SDS011;3957;48.61947800;9.05303100;2023-11-19T01:53:27;0.77;;;0.70;;
7823;SDS011;3957;48.61947800;9.05303100;2023-11-19T01:54:30;2.30;;;1.10;;
7823;SDS011;3957;48.61947800;9.05303100;2023-11-19T01:55:32;1.95;;;1.30;;
7823;SDS011;3957;48.61947800;9.05303100;2023-11-19T01:56:35;1.90;;;1.00;;
7823;SDS011;3957;48.61947800;9.05303100;2023-11-19T01:57:38;2.30;;;1.17;;
7823;SDS011;3957;48.61947800;9.05303100;2023-11-19T01:58:43;1.02;;;0.93;;
7823;SDS011;3957;48.61947800;9.05303100;2023-11-19T01:59:46;1.10;;;1.00;;
7823;SDS011;3957;48.61947800;9.05303100;2023-11-19T02:00:48;1.00;;;1.00;;
7823;SDS011;3957;48.61947800;9.05303100;2023-11-19T02:01:50;1.20;;;1.10;;
7823;SDS011;3957;48.61947800;9.05303100;2023-11-19T02:03:01;1.15;;;0.82;;
7823;SDS011;3957;48.61947800;9.05303100;2023-11-19T02:04:05;1.10;;;1.00;;
7823;SDS011;3957;48.61947800;9.05303100;2023-11-19T02:05:10;1.20;;;1.10;;
7823;SDS011;3957;48.61947800;9.05303100;2023-11-19T02:06:13;2.30;;;0.90;;
7823;SDS011;3957;48.61947800;9.05303100;2023-11-19T02:07:15;1.20;;;1.10;;
7823;SDS011;3957;48.61947800;9.05303100;2023-11-19T02:08:18;1.30;;;1.10;;
7823;SDS011;3957;48.61947800;9.05303100;2023-11-19T02:09:20;0.73;;;0.73;;
7823;SDS011;3957;48.61947800;9.05303100;2023-11-19T02:10:22;1.50;;;0.95;;
7823;SDS011;3957;48.61947800;9.05303100;2023-11-19T02:11:26;0.80;;;0.80;;
7823;SDS011;3957;48.61947800;9.05303100;2023-11-19T02:12:31;1.25;;;1.15;;
7823;SDS011;3957;48.61947800;9.05303100;2023-11-19T02:13:37;0.90;;;0.85;;
7823;SDS011;3957;48.61947800;9.05303100;2023-11-19T02:14:40;1.55;;;1.20;;
7823;SDS011;3957;48.61947800;9.05303100;2023-11-19T02:15:42;2.58;;;1.13;;
7823;SDS011;3957;48.61947800;9.05303100;2023-11-19T02:16:44;0.98;;;0.88;;
7823;SDS011;3957;48.61947800;9.05303100;2023-11-19T02:17:45;0.90;;;0.90;;
7823;SDS011;3957;48.61947800;9.05303100;2023-11-19T02:18:47;1.35;;;1.10;;
7823;SDS011;3957;48.61947800;9.05303100;2023-11-19T02:19:49;2.30;;;1.00;;
7823;SDS011;3957;48.61947800;9.05303100;2023-11-19T02:20:51;1.10;;;1.00;;
7823;SDS011;3957;48.61947800;9.05303100;2023-11-19T02:21:53;1.02;;;0.93;;
7823;SDS011;3957;48.61947800;9.05303100;2023-11-19T02:22:54;1.00;;;1.00;;
7823;SDS011;3957;48.61947800;9.05303100;2023-11-19T02:23:56;1.13;;;0.93;;
7823;SDS011;3957;48.61947800;9.05303100;2023-11-19T02:25:29;1.05;;;1.02;;
7823;SDS011;3957;48.61947800;9.05303100;2023-11-19T02:26:37;0.70;;;0.70;;
7823;SDS011;3957;48.61947800;9.05303100;2023-11-19T02:28:57;0.70;;;0.70;;
7823;SDS011;3957;48.61947800;9.05303100;2023-11-19T02:29:58;0.80;;;0.80;;
7823;SDS011;3957;48.61947800;9.05303100;2023-11-19T02:31:01;0.90;;;0.90;;
7823;SDS011;3957;48.61947800;9.05303100;2023-11-19T02:32:02;1.05;;;0.80;;
7823;SDS011;3957;48.61947800;9.05303100;2023-11-19T02:33:04;1.42;;;1.00;;
7823;SDS011;3957;48.61947800;9.05303100;2023-11-19T02:34:10;1.40;;;0.90;;
7823;SDS011;3957;48.61947800;9.05303100;2023-11-19T02:35:13;0.88;;;0.88;;
7823;SDS011;3957;48.61947800;9.05303100;2023-11-19T02:36:15;0.95;;;0.82;;
7823;SDS011;3957;48.61947800;9.05303100;2023-11-19T02:37:18;1.00;;;0.80;;
7823;SDS011;3957;48.61947800;9.05303100;2023-11-19T02:38:20;0.77;;;0.77;;
7823;SDS011;3957;48.61947800;9.05303100;2023-11-19T02:39:23;0.85;;;0.85;;
7823;SDS011;3957;48.61947800;9.05303100;2023-11-19T02:40:24;0.60;;;0.60;;
7823;SDS011;3957;48.61947800;9.05303100;2023-11-19T02:41:26;0.80;;;0.80;;
7823;SDS011;3957;48.61947800;9.05303100;2023-11-19T02:42:28;1.60;;;0.70;;
7823;SDS011;3957;48.61947800;9.05303100;2023-11-19T02:43:30;0.85;;;0.85;;
7823;SDS011;3957;48.61947800;9.05303100;2023-11-19T02:44:34;0.70;;;0.70;;
7823;SDS011;3957;48.61947800;9.05303100;2023-11-19T02:45:35;0.80;;;0.80;;
7823;SDS011;3957;48.61947800;9.05303100;2023-11-19T02:46:37;2.38;;;0.88;;
7823;SDS011;3957;48.61947800;9.05303100;2023-11-19T02:47:42;0.70;;;0.70;;
7823;SDS011;3957;48.61947800;9.05303100;2023-11-19T02:48:44;1.10;;;0.90;;
7823;SDS011;3957;48.61947800;9.05303100;2023-11-19T02:49:47;0.80;;;0.80;;
7823;SDS011;3957;48.61947800;9.05303100;2023-11-19T02:50:49;0.70;;;0.60;;
7823;SDS011;3957;48.61947800;9.05303100;2023-11-19T02:51:50;1.10;;;0.73;;
7823;SDS011;3957;48.61947800;9.05303100;2023-11-19T02:52:53;0.75;;;0.75;;
7823;SDS011;3957;48.61947800;9.05303100;2023-11-19T02:53:58;0.80;;;0.80;;
7823;SDS011;3957;48.61947800;9.05303100;2023-11-19T02:54:59;0.70;;;0.70;;
7823;SDS011;3957;48.61947800;9.05303100;2023-11-19T02:56:01;0.60;;;0.60;;
7823;SDS011;3957;48.61947800;9.05303100;2023-11-19T02:57:10;0.75;;;0.75;;
7823;SDS011;3957;48.61947800;9.05303100;2023-11-19T02:58:22;0.70;;;0.70;;
7823;SDS011;3957;48.61947800;9.05303100;2023-11-19T02:59:29;0.80;;;0.80;;
7823;SDS011;3957;48.61947800;9.05303100;2023-11-19T03:00:40;0.70;;;0.70;;
7823;SDS011;3957;48.61947800;9.05303100;2023-11-19T03:01:49;0.82;;;0.82;;
7823;SDS011;3957;48.61947800;9.05303100;2023-11-19T03:02:52;0.60;;;0.60;;
7823;SDS011;3957;48.61947800;9.05303100;2023-11-19T03:04:11;0.70;;;0.70;;
7823;SDS011;3957;48.61947800;9.05303100;2023-11-19T03:05:14;1.23;;;0.80;;
7823;SDS011;3957;48.61947800;9.05303100;2023-11-19T03:06:17;0.65;;;0.65;;
7823;SDS011;3957;48.61947800;9.05303100;2023-11-19T03:07:19;0.75;;;0.75;;
7823;SDS011;3957;48.61947800;9.05303100;2023-11-19T03:08:22;0.90;;;0.80;;
7823;SDS011;3957;48.61947800;9.05303100;2023-11-19T03:09:24;0.60;;;0.60;;
7823;SDS011;3957;48.61947800;9.05303100;2023-11-19T03:10:26;1.13;;;0.70;;
7823;SDS011;3957;48.61947800;9.05303100;2023-11-19T03:11:27;1.40;;;0.80;;
7823;SDS011;3957;48.61947800;9.05303100;2023-11-19T03:12:28;4.35;;;0.85;;
7823;SDS011;3957;48.61947800;9.05303100;2023-11-19T03:13:30;0.70;;;0.70;;
7823;SDS011;3957;48.61947800;9.05303100;2023-11-19T03:14:34;0.50;;;0.50;;
7823;SDS011;3957;48.61947800;9.05303100;2023-11-19T03:15:36;1.60;;;0.90;;
7823;SDS011;3957;48.61947800;9.05303100;2023-11-19T03:16:38;0.70;;;0.70;;
7823;SDS011;3957;48.61947800;9.05303100;2023-11-19T03:17:40;0.80;;;0.80;;
7823;SDS011;3957;48.61947800;9.05303100;2023-11-19T03:18:43;0.60;;;0.60;;
7823;SDS011;3957;48.61947800;9.05303100;2023-11-19T03:19:45;0.50;;;0.50;;
7823;SDS011;3957;48.61947800;9.05303100;2023-11-19T03:20:47;0.70;;;0.70;;
7823;SDS011;3957;48.61947800;9.05303100;2023-11-19T03:21:48;0.60;;;0.60;;
7823;SDS011;3957;48.61947800;9.05303100;2023-11-19T03:22:50;0.70;;;0.70;;
7823;SDS011;3957;48.61947800;9.05303100;2023-11-19T03:23:53;0.70;;;0.70;;
7823;SDS011;3957;48.61947800;9.05303100;2023-11-19T03:24:54;0.70;;;0.70;;
7823;SDS011;3957;48.61947800;9.05303100;2023-11-19T03:25:56;0.70;;;0.70;;
7823;SDS011;3957;48.61947800;9.05303100;2023-11-19T03:26:58;0.50;;;0.50;;
7823;SDS011;3957;48.61947800;9.05303100;2023-11-19T03:28:00;0.70;;;0.70;;
7823;SDS011;3957;48.61947800;9.05303100;2023-11-19T03:29:05;0.90;;;0.70;;
7823;SDS011;3957;48.61947800;9.05303100;2023-11-19T03:30:06;0.65;;;0.65;;
7823;SDS011;3957;48.61947800;9.05303100;2023-11-19T03:31:08;0.60;;;0.60;;
7823;SDS011;3957;48.61947800;9.05303100;2023-11-19T03:32:10;0.68;;;0.60;;
7823;SDS011;3957;48.61947800;9.05303100;2023-11-19T03:33:13;7.50;;;4.32;;
7823;SDS011;3957;48.61947800;9.05303100;2023-11-19T03:34:15;0.50;;;0.50;;
7823;SDS011;3957;48.61947800;9.05303100;2023-11-19T03:35:17;2.50;;;0.70;;
7823;SDS011;3957;48.61947800;9.05303100;2023-11-19T03:36:18;0.60;;;0.60;;
7823;SDS011;3957;48.61947800;9.05303100;2023-11-19T03:37:20;0.50;;;0.50;;
7823;SDS011;3957;48.61947800;9.05303100;2023-11-19T03:38:22;1.35;;;0.90;;
7823;SDS011;3957;48.61947800;9.05303100;2023-11-19T03:39:24;0.50;;;0.50;;
7823;SDS011;3957;48.61947800;9.05303100;2023-11-19T03:40:26;0.60;;;0.60;;
7823;SDS011;3957;48.61947800;9.05303100;2023-11-19T03:41:28;0.60;;;0.60;;
7823;SDS011;3957;48.61947800;9.05303100;2023-11-19T03:42:29;0.50;;;0.50;;
7823;SDS011;3957;48.61947800;9.05303100;2023-11-19T03:43:31;0.70;;;0.70;;
7823;SDS011;3957;48.61947800;9.05303100;2023-11-19T03:44:34;0.95;;;0.60;;
7823;SDS011;3957;48.61947800;9.05303100;2023-11-19T03:45:36;0.65;;;0.65;;
7823;SDS011;3957;48.61947800;9.05303100;2023-11-19T03:46:37;0.60;;;0.60;;
7823;SDS011;3957;48.61947800;9.05303100;2023-11-19T03:47:40;0.50;;;0.50;;
7823;SDS011;3957;48.61947800;9.05303100;2023-11-19T03:48:42;0.68;;;0.68;;
7823;SDS011;3957;48.61947800;9.05303100;2023-11-19T03:49:51;0.60;;;0.60;;
7823;SDS011;3957;48.61947800;9.05303100;2023-11-19T03:50:53;0.70;;;0.70;;
7823;SDS011;3957;48.61947800;9.05303100;2023-11-19T03:51:54;0.70;;;0.70;;
7823;SDS011;3957;48.61947800;9.05303100;2023-11-19T03:52:57;0.70;;;0.52;;
7823;SDS011;3957;48.61947800;9.05303100;2023-11-19T03:53:58;0.60;;;0.60;;
7823;SDS011;3957;48.61947800;9.05303100;2023-11-19T03:55:00;0.50;;;0.50;;
7823;SDS011;3957;48.61947800;9.05303100;2023-11-19T03:56:02;0.70;;;0.70;;
7823;SDS011;3957;48.61947800;9.05303100;2023-11-19T03:57:05;0.80;;;0.80;;
7823;SDS011;3957;48.61947800;9.05303100;2023-11-19T03:58:06;0.52;;;0.52;;
7823;SDS011;3957;48.61947800;9.05303100;2023-11-19T03:59:08;0.60;;;0.60;;
7823;SDS011;3957;48.61947800;9.05303100;2023-11-19T04:00:11;0.50;;;0.50;;
7823;SDS011;3957;48.61947800;9.05303100;2023-11-19T04:01:15;0.60;;;0.60;;
7823;SDS011;3957;48.61947800;9.05303100;2023-11-19T04:02:17;0.50;;;0.50;;
7823;SDS011;3957;48.61947800;9.05303100;2023-11-19T04:03:19;0.60;;;0.60;;
7823;SDS011;3957;48.61947800;9.05303100;2023-11-19T04:04:20;1.40;;;0.77;;
7823;SDS011;3957;48.61947800;9.05303100;2023-11-19T04:05:22;2.25;;;0.50;;
7823;SDS011;3957;48.61947800;9.05303100;2023-11-19T04:06:23;0.60;;;0.60;;
7823;SDS011;3957;48.61947800;9.05303100;2023-11-19T04:07:25;0.60;;;0.60;;
7823;SDS011;3957;48.61947800;9.05303100;2023-11-19T04:08:26;0.50;;;0.50;;
7823;SDS011;3957;48.61947800;9.05303100;2023-11-19T04:09:28;0.60;;;0.60;;
7823;SDS011;3957;48.61947800;9.05303100;2023-11-19T04:10:30;0.50;;;0.50;;
7823;SDS011;3957;48.61947800;9.05303100;2023-11-19T04:11:32;0.63;;;0.63;;
7823;SDS011;3957;48.61947800;9.05303100;2023-11-19T04:12:34;0.57;;;0.57;;
7823;SDS011;3957;48.61947800;9.05303100;2023-11-19T04:13:36;0.50;;;0.50;;
7823;SDS011;3957;48.61947800;9.05303100;2023-11-19T04:14:37;0.60;;;0.60;;
7823;SDS011;3957;48.61947800;9.05303100;2023-11-19T04:15:39;0.50;;;0.50;;
7823;SDS011;3957;48.61947800;9.05303100;2023-11-19T04:16:40;0.60;;;0.60;;
7823;SDS011;3957;48.61947800;9.05303100;2023-11-19T04:17:42;0.60;;;0.60;;
7823;SDS011;3957;48.61947800;9.05303100;2023-11-19T04:18:44;0.50;;;0.50;;
7823;SDS011;3957;48.61947800;9.05303100;2023-11-19T04:19:46;0.60;;;0.60;;
7823;SDS011;3957;48.61947800;9.05303100;2023-11-19T04:20:47;0.60;;;0.60;;
7823;SDS011;3957;48.61947800;9.05303100;2023-11-19T04:21:49;0.68;;;0.68;;
7823;SDS011;3957;48.61947800;9.05303100;2023-11-19T04:22:50;0.60;;;0.60;;
7823;SDS011;3957;48.61947800;9.05303100;2023-11-19T04:23:52;0.40;;;0.40;;
7823;SDS011;3957;48.61947800;9.05303100;2023-11-19T04:24:53;1.20;;;0.70;;
7823;SDS011;3957;48.61947800;9.05303100;2023-11-19T04:25:56;0.50;;;0.50;;
7823;SDS011;3957;48.61947800;9.05303100;2023-11-19T04:27:11;0.65;;;0.65;;
7823;SDS011;3957;48.61947800;9.05303100;2023-11-19T04:28:14;2.30;;;0.60;;
7823;SDS011;3957;48.61947800;9.05303100;2023-11-19T04:29:16;0.70;;;0.70;;
7823;SDS011;3957;48.61947800;9.05303100;2023-11-19T04:30:21;0.50;;;0.50;;
7823;SDS011;3957;48.61947800;9.05303100;2023-11-19T04:31:28;0.50;;;0.50;;
7823;SDS011;3957;48.61947800;9.05303100;2023-11-19T04:32:32;1.90;;;0.70;;
7823;SDS011;3957;48.61947800;9.05303100;2023-11-19T04:33:34;0.52;;;0.52;;
7823;SDS011;3957;48.61947800;9.05303100;2023-11-19T04:34:36;0.60;;;0.60;;
7823;SDS011;3957;48.61947800;9.05303100;2023-11-19T04:35:38;0.50;;;0.50;;
7823;SDS011;3957;48.61947800;9.05303100;2023-11-19T04:36:40;0.60;;;0.60;;
7823;SDS011;3957;48.61947800;9.05303100;2023-11-19T04:37:41;0.50;;;0.50;;
7823;SDS011;3957;48.61947800;9.05303100;2023-11-19T04:38:43;0.50;;;0.50;;
7823;SDS011;3957;48.61947800;9.05303100;2023-11-19T04:39:44;0.70;;;0.70;;
7823;SDS011;3957;48.61947800;9.05303100;2023-11-19T04:40:47;0.60;;;0.50;;
7823;SDS011;3957;48.61947800;9.05303100;2023-11-19T04:41:49;0.75;;;0.75;;
7823;SDS011;3957;48.61947800;9.05303100;2023-11-19T04:42:51;0.70;;;0.70;;
7823;SDS011;3957;48.61947800;9.05303100;2023-11-19T04:43:53;0.50;;;0.50;;
7823;SDS011;3957;48.61947800;9.05303100;2023-11-19T04:44:55;2.58;;;0.65;;
7823;SDS011;3957;48.61947800;9.05303100;2023-11-19T04:45:57;0.50;;;0.50;;
7823;SDS011;3957;48.61947800;9.05303100;2023-11-19T04:46:58;0.63;;;0.63;;
7823;SDS011;3957;48.61947800;9.05303100;2023-11-19T04:48:00;0.60;;;0.60;;
7823;SDS011;3957;48.61947800;9.05303100;2023-11-19T04:49:02;0.50;;;0.50;;
7823;SDS011;3957;48.61947800;9.05303100;2023-11-19T04:50:04;0.60;;;0.60;;
7823;SDS011;3957;48.61947800;9.05303100;2023-11-19T04:51:06;0.47;;;0.47;;
7823;SDS011;3957;48.61947800;9.05303100;2023-11-19T04:52:07;0.80;;;0.80;;
7823;SDS011;3957;48.61947800;9.05303100;2023-11-19T04:53:09;0.60;;;0.60;;
7823;SDS011;3957;48.61947800;9.05303100;2023-11-19T04:54:11;0.50;;;0.50;;
7823;SDS011;3957;48.61947800;9.05303100;2023-11-19T04:55:12;0.63;;;0.63;;
7823;SDS011;3957;48.61947800;9.05303100;2023-11-19T04:56:15;1.25;;;0.68;;
7823;SDS011;3957;48.61947800;9.05303100;2023-11-19T04:57:20;0.60;;;0.60;;
7823;SDS011;3957;48.61947800;9.05303100;2023-11-19T04:58:22;0.50;;;0.50;;
7823;SDS011;3957;48.61947800;9.05303100;2023-11-19T04:59:23;0.70;;;0.70;;
7823;SDS011;3957;48.61947800;9.05303100;2023-11-19T05:00:25;0.60;;;0.60;;
7823;SDS011;3957;48.61947800;9.05303100;2023-11-19T05:01:27;0.50;;;0.50;;
7823;SDS011;3957;48.61947800;9.05303100;2023-11-19T05:02:28;2.70;;;0.50;;
7823;SDS011;3957;48.61947800;9.05303100;2023-11-19T05:03:30;0.50;;;0.50;;
7823;SDS011;3957;48.61947800;9.05303100;2023-11-19T05:04:33;0.70;;;0.70;;
7823;SDS011;3957;48.61947800;9.05303100;2023-11-19T05:05:34;0.50;;;0.50;;
7823;SDS011;3957;48.61947800;9.05303100;2023-11-19T05:06:36;0.50;;;0.50;;
7823;SDS011;3957;48.61947800;9.05303100;2023-11-19T05:07:38;0.60;;;0.60;;
7823;SDS011;3957;48.61947800;9.05303100;2023-11-19T05:08:40;0.50;;;0.50;;
7823;SDS011;3957;48.61947800;9.05303100;2023-11-19T05:09:42;2.35;;;0.70;;
7823;SDS011;3957;48.61947800;9.05303100;2023-11-19T05:10:44;0.50;;;0.50;;
7823;SDS011;3957;48.61947800;9.05303100;2023-11-19T05:11:46;1.30;;;0.80;;
7823;SDS011;3957;48.61947800;9.05303100;2023-11-19T05:12:51;0.60;;;0.60;;
7823;SDS011;3957;48.61947800;9.05303100;2023-11-19T05:13:53;0.50;;;0.50;;
7823;SDS011;3957;48.61947800;9.05303100;2023-11-19T05:14:54;0.90;;;0.60;;
7823;SDS011;3957;48.61947800;9.05303100;2023-11-19T05:15:56;0.40;;;0.40;;
7823;SDS011;3957;48.61947800;9.05303100;2023-11-19T05:16:57;0.70;;;0.70;;
7823;SDS011;3957;48.61947800;9.05303100;2023-11-19T05:17:59;0.60;;;0.60;;
7823;SDS011;3957;48.61947800;9.05303100;2023-11-19T05:19:00;0.52;;;0.52;;
7823;SDS011;3957;48.61947800;9.05303100;2023-11-19T05:20:02;0.60;;;0.60;;
7823;SDS011;3957;48.61947800;9.05303100;2023-11-19T05:21:03;0.50;;;0.50;;
7823;SDS011;3957;48.61947800;9.05303100;2023-11-19T05:22:05;0.60;;;0.60;;
7823;SDS011;3957;48.61947800;9.05303100;2023-11-19T05:23:09;0.50;;;0.50;;
7823;SDS011;3957;48.61947800;9.05303100;2023-11-19T05:24:21;0.60;;;0.60;;
7823;SDS011;3957;48.61947800;9.05303100;2023-11-19T05:25:23;0.57;;;0.57;;
7823;SDS011;3957;48.61947800;9.05303100;2023-11-19T05:26:25;0.70;;;0.70;;
7823;SDS011;3957;48.61947800;9.05303100;2023-11-19T05:27:27;0.50;;;0.50;;
7823;SDS011;3957;48.61947800;9.05303100;2023-11-19T05:28:29;0.50;;;0.50;;
7823;SDS011;3957;48.61947800;9.05303100;2023-11-19T05:29:31;0.55;;;0.55;;
7823;SDS011;3957;48.61947800;9.05303100;2023-11-19T05:30:32;0.47;;;0.47;;
7823;SDS011;3957;48.61947800;9.05303100;2023-11-19T05:31:34;0.60;;;0.60;;
7823;SDS011;3957;48.61947800;9.05303100;2023-11-19T05:32:38;0.40;;;0.40;;
7823;SDS011;3957;48.61947800;9.05303100;2023-11-19T05:33:40;0.90;;;0.57;;
7823;SDS011;3957;48.61947800;9.05303100;2023-11-19T05:34:41;3.13;;;2.33;;
7823;SDS011;3957;48.61947800;9.05303100;2023-11-19T05:35:45;6.22;;;3.42;;
7823;SDS011;3957;48.61947800;9.05303100;2023-11-19T05:36:47;0.60;;;0.60;;
7823;SDS011;3957;48.61947800;9.05303100;2023-11-19T05:37:49;0.52;;;0.52;;